Copperas Cove, TX (76522)

4:34 PM CDT on April 18, 2015 (GMT -0500)
skyline | | Change Station
CLOSE
Current Station
Personal Weather Station
Location: Copperas Cove, TX
Elevation: 1250 ft
Nearby Weather Stations
Active Advisory: Severe Thunderstorm Watch

Elev 1250 ft 31.12 °N, 97.94 °W | Updated 29 seconds ago

Clear
Clear
80.2 °F
Feels Like 82 °F
N
8.0
Wind Variable Wind from ESE
Gusts 11.0 mph

Today
High -- | Low -- °F
--% Chance of Precip.
Yesterday
High -- | Low -- °F
Precip. -- in
7:00 AM 8:02 PM
New Moon, 0% visible
Pressure 29.77 in
Visibility 9.0 miles
Clouds Scattered Clouds 3300 ft
Heat Index 82 °F
Dew Point 63 °F
Humidity 56%
Rainfall 0.00 in
Snow Depth Not available.
UV 6 out of 12
Pollen 6.70 out of 12
Air Quality Not available.
Flu Activity Local Activity
METAR KGRK 182058Z AUTO 12011G18KT 9SM SCT033 26/17 A2979 RMK AO2 SLP080 T02550171 57028

More Conditions Fewer Conditions

Pressure 29.77 in
Visibility 9.0 miles
Clouds Scattered Clouds 3300 ft
Heat Index 82 °F
Dew Point 63 °F
Humidity 56%
Rainfall 0.00 in
Snow Depth Not available.
UV 6 out of 12
Pollen 6.70 out of 12
Air Quality Not available.
Flu Activity Local Activity
METAR KGRK 182058Z AUTO 12011G18KT 9SM SCT033 26/17 A2979 RMK AO2 SLP080 T02550171 57028

More Conditions Fewer Conditions

10-Day Weather Forecast

Almanac

Astronomy

Apr. 18, 2015 Rise Set
Actual Time
Civil Twilight
Nautical Twilight
Astronomical Twilight
Moon
Length of Visible Light
Length of Day
Tomorrow will be .
, % of the Moon is Illuminated

Today's Extremes

State Highs State Lows

Community

WunderPhotos

Upload Photos

1,814,534 photos uploaded!

WunderBlogs® & News

Nearby

Air Quality

  Air Quality AQ Index Pollutant
Not available.

Snow Depth

Station Depth Elevation

Earthquake Activity

City Distance Mag. Time & Date
Minimum magnitude displayed is 2.5.

Coastal Water Temperatures

Place Temperature

Stations

Nearby Weather Stations

Station Location Temp. Windchill Dew Point Humidity Wind Precip. Elev Updated Type
                   
Severe Thunderstorm Watch
Statement as of 4:24 PM CDT on April 18, 2015

Severe Thunderstorm Watch 72 remains in effect until 900 PM CDT
for the following locations


TX
. Texas counties included are

Bandera blanco Bosque
Brown Burnet Callahan
Coke Coleman Comanche
Concho Coryell Crockett
Eastland Edwards Erath
Fisher Gillespie Hamilton
Haskell Hood Irion
Jack Jones Kendall
Kerr Kimble Kinney
Lampasas Llano McCulloch
Mason Menard Mills
Montague Nolan Palo Pinto
Parker real Runnels
San Saba Schleicher Shackelford
Somervell Stephens Sterling
Sutton Taylor Throckmorton
Tom Green Uvalde Val Verde
wise Young